EGCCVTSH

Guest
Details From EGCC - Manchester
To VTSH - Songkhla
Flight Number -
Tags Decoded
Created
Modified
Stats Distance 5,892 nm / 10,912 km
Max Altitude 0 ft / 0 m
Waypoints 9
Social Downloads 1
Likes 0
Share VATSIM

Download

Looking for another format? Having issues loading an existing format? Contact us
Advertisement - Login to hide

Notes

Decoded

Route

EGCC INN08 RMS97 TIRUL DRVAR MAVAR AGISA BAMOS SKL

ID Type Via Altitude Latitude Longitude Leg Dist Tot Dist Heading (true) Name
O EGCC APT - 0 ft / 0 m 53.33197˚ -2.31066˚ - 0 nm - -
INN08 FIX - 0 ft / 0 m 53.44376˚ -2.08032˚ 10 nm 10 nm 51° / 51° -
RMS97 FIX - 0 ft / 0 m 49.43091˚ 7.56066˚ 433 nm 444 nm 120° / 127° -
TIRUL FIX - 0 ft / 0 m 47.18275˚ 11.89036˚ 219 nm 663 nm 126° / 130° -
DRVAR FIX - 0 ft / 0 m 44.35194˚ 16.59389˚ 260 nm 923 nm 129° / 132° -
MAVAR FIX - 0 ft / 0 m 41.67000˚ 20.53000˚ 236 nm 1159 nm 132° / 134° -
AGISA FIX - 0 ft / 0 m 39.73333˚ 23.35000˚ 173 nm 1333 nm 131° / 133° -
BAMOS FIX - 0 ft / 0 m 39.29375˚ 23.56047˚ 28 nm 1361 nm 160° / 160° -
O SKL VOR - 0 ft / 0 m 7.18879˚ 100.60420˚ 4530 nm 5891 nm 93° / 129° SONGKHLA VOR-DME

Altitude Profile

Advertisement - Login to hide

Weather


0- 5 10 15 20 25 30 35+ Temperature / ° C

Clouds and Precipitation
Forecast for 2017-12-19 00:00 UTC. Updated an hour ago

Ground ~20,000 ft ~40,000 ft Winds

EGCC

Details ICAO EGCC (MAN)
Name Manchester Intl
Region United Kingdom
Timezone Europe/London (UTC+0.0)
Stats Elevation 257 ft / 78 m (AMSL)
Location 53.347141° -2.283954°
Runways 2
Magnetic Variation 1.460° W

METAR

EGCC 182020Z AUTO VRB01KT 0100 R23R/0275 FG VV/// 04/04 Q1032 NOSIG

Decode

TAF

TAF EGCC 181705Z 1818/1924 VRB03KT 0300 FG VV/// PROB30 TEMPO 1818/1906 3000 BR FEW004 BECMG 1906/1908 6000 NSW BKN008 BECMG 1908/1911 9999 SCT020 TEMPO 1911/1918 BKN012 PROB30 TEMPO 1918/1924 3000 BR BKN006

Decode

Departure Runways

ID Width Length Bearing (true) Bearing (mag) Surface Threshold Offset Overrun Length
05L 151 ft / 46 m 9,981 ft / 3,042 m 50.99° 52.45° Asphalt 1,401 ft / 427 m 0 ft / 0 m
05R 151 ft / 46 m 9,952 ft / 3,033 m 50.97° 52.43° Asphalt 0 ft / 0 m 26 ft / 8 m
23L 151 ft / 46 m 9,952 ft / 3,033 m 231.00° 232.46° Asphalt 561 ft / 171 m 0 ft / 0 m
23R 151 ft / 46 m 9,981 ft / 3,042 m 231.02° 232.48° Asphalt 597 ft / 182 m 0 ft / 0 m

VTSH

Details ICAO VTSH
Name Songkhla
Region Thailand
Timezone Asia/Bangkok (UTC+7.0)
Stats Elevation 12 ft / 4 m (AMSL)
Location 7.186500° 100.608078°
Runways 1
Magnetic Variation 0.256° W

METAR

Not found

TAF

TAF VTSH 181700Z 1818/1918 06004KT 9999 FEW020 BKN100 BECMG 1901/1903 06014KT TEMPO 1903/1909 VRB15KT 6000 -RA SCT015 BKN100 BECMG 1913/1915 06004KT

Decode

Destination Runways

ID Width Length Bearing (true) Bearing (mag) Surface Threshold Offset Overrun Length
13 148 ft / 45 m 4,942 ft / 1,506 m 134.88° 135.14° Asphalt 0 ft / 0 m 0 ft / 0 m
31 148 ft / 45 m 4,942 ft / 1,506 m 314.88° 315.14° Asphalt 0 ft / 0 m 0 ft / 0 m